createdAt,value
2017-08-25T00:00:40.085Z,0
2017-08-25T00:01:52.121Z,0
2017-08-25T00:03:04.376Z,0
2017-08-25T00:04:16.340Z,0
2017-08-25T00:05:29.086Z,0
2017-08-25T00:06:41.613Z,0
2017-08-25T00:07:54.276Z,0
2017-08-25T00:09:06.836Z,0
2017-08-25T00:10:19.088Z,0
2017-08-25T00:11:31.652Z,0
2017-08-25T00:12:43.934Z,0
2017-08-25T00:13:56.243Z,0
2017-08-25T00:15:08.514Z,0
2017-08-25T00:16:20.496Z,0
2017-08-25T00:17:33.166Z,0
2017-08-25T00:18:45.787Z,0
2017-08-25T00:19:57.735Z,0
2017-08-25T00:21:09.999Z,0
2017-08-25T00:22:22.285Z,0
2017-08-25T00:23:34.901Z,0
2017-08-25T00:24:47.523Z,0
2017-08-25T00:26:00.136Z,0
2017-08-25T00:27:12.483Z,0
2017-08-25T00:28:25.098Z,0
2017-08-25T00:29:37.700Z,0
2017-08-25T00:30:50.307Z,0
2017-08-25T00:32:02.895Z,0
2017-08-25T00:33:14.907Z,0
2017-08-25T00:34:27.126Z,0
2017-08-25T00:35:39.748Z,0
2017-08-25T00:36:52.319Z,0
2017-08-25T00:38:05.212Z,0
2017-08-25T00:39:17.195Z,0
2017-08-25T00:40:28.881Z,0
2017-08-25T00:41:41.454Z,0
2017-08-25T00:42:54.046Z,0
2017-08-25T00:44:06.635Z,0
2017-08-25T00:45:18.913Z,0
2017-08-25T00:46:31.436Z,0
2017-08-25T00:47:44.076Z,0
2017-08-25T00:48:56.327Z,0
2017-08-25T00:50:08.956Z,0
2017-08-25T00:51:21.234Z,0
2017-08-25T00:52:33.817Z,0
2017-08-25T00:53:45.833Z,0
2017-08-25T00:54:58.431Z,0
2017-08-25T00:56:11.025Z,0
2017-08-25T00:57:23.556Z,0
2017-08-25T00:58:36.116Z,0
2017-08-25T00:59:48.636Z,0
2017-08-25T01:01:01.207Z,0
2017-08-25T01:02:13.803Z,0
2017-08-25T01:03:26.329Z,0
2017-08-25T01:04:38.965Z,0
2017-08-25T01:05:51.489Z,0
2017-08-25T01:07:04.085Z,0
2017-08-25T01:08:16.691Z,0
2017-08-25T01:09:28.625Z,0
2017-08-25T01:10:40.921Z,0
2017-08-25T01:11:53.180Z,0
2017-08-25T01:13:05.819Z,0
2017-08-25T01:14:18.441Z,0
2017-08-25T01:15:31.034Z,0
2017-08-25T01:16:43.575Z,0
2017-08-25T01:17:55.513Z,0
2017-08-25T01:19:08.098Z,0
2017-08-25T01:20:20.704Z,0
2017-08-25T01:21:33.288Z,0
2017-08-25T01:22:45.605Z,0
2017-08-25T01:23:57.874Z,0
2017-08-25T01:25:10.460Z,0
2017-08-25T01:26:23.026Z,0
2017-08-25T01:27:35.317Z,0
2017-08-25T01:28:47.893Z,0
2017-08-25T01:30:00.483Z,0
2017-08-25T01:31:12.801Z,0
2017-08-25T01:32:25.691Z,0
2017-08-25T01:33:37.364Z,0
2017-08-25T01:34:49.935Z,0
2017-08-25T01:36:02.134Z,0
2017-08-25T01:37:14.727Z,0
2017-08-25T01:38:27.320Z,0
2017-08-25T01:39:39.816Z,0
2017-08-25T01:40:52.088Z,0
2017-08-25T01:42:04.674Z,0
2017-08-25T01:43:16.302Z,0
2017-08-25T01:44:28.610Z,0
2017-08-25T01:45:41.252Z,0
2017-08-25T01:46:53.243Z,0
2017-08-25T01:48:05.792Z,0
2017-08-25T01:49:18.332Z,0
2017-08-25T01:50:30.933Z,0
2017-08-25T01:51:43.499Z,0
2017-08-25T01:52:56.051Z,0
2017-08-25T01:54:08.594Z,0
2017-08-25T01:55:21.196Z,0
2017-08-25T01:56:33.167Z,0
2017-08-25T01:57:45.851Z,0
2017-08-25T01:58:58.408Z,0
2017-08-25T02:00:10.973Z,0
2017-08-25T02:01:23.249Z,0
2017-08-25T02:02:35.551Z,0
2017-08-25T02:03:48.185Z,0
2017-08-25T02:06:42.922Z,0
2017-08-25T02:07:55.277Z,0
2017-08-25T02:09:07.927Z,0
2017-08-25T02:10:20.509Z,0
2017-08-25T02:11:33.076Z,0
2017-08-25T02:12:45.672Z,0
2017-08-25T02:13:58.279Z,0
2017-08-25T02:15:11.119Z,0
2017-08-25T02:16:23.344Z,0
2017-08-25T02:17:35.905Z,0
2017-08-25T02:18:48.511Z,0
2017-08-25T02:20:01.149Z,0
2017-08-25T02:21:13.722Z,0
2017-08-25T02:22:26.048Z,0
2017-08-25T02:23:38.590Z,0
2017-08-25T02:24:51.196Z,0
2017-08-25T02:26:03.462Z,0
2017-08-25T02:27:15.762Z,0
2017-08-25T02:28:28.333Z,0
2017-08-25T02:29:40.567Z,0
2017-08-25T02:30:53.189Z,0
2017-08-25T02:32:05.730Z,0
2017-08-25T02:33:18.023Z,0
2017-08-25T02:34:30.599Z,0
2017-08-25T02:35:57.964Z,0
2017-08-25T02:37:10.570Z,0
2017-08-25T02:38:23.115Z,0
2017-08-25T02:39:35.676Z,0
2017-08-25T02:40:47.883Z,0
2017-08-25T02:42:00.498Z,0
2017-08-25T02:43:12.826Z,0
2017-08-25T02:44:25.089Z,0
2017-08-25T02:45:38.107Z,0
2017-08-25T02:46:50.049Z,0
2017-08-25T02:48:02.278Z,0
2017-08-25T02:49:14.540Z,0
2017-08-25T02:50:27.160Z,0
2017-08-25T02:51:39.749Z,0
2017-08-25T02:52:52.329Z,0
2017-08-25T02:54:04.873Z,0
2017-08-25T02:55:17.137Z,0
2017-08-25T02:56:29.696Z,0
2017-08-25T02:57:42.284Z,0
2017-08-25T02:58:54.832Z,0
2017-08-25T03:00:07.125Z,0
2017-08-25T03:01:19.348Z,0
2017-08-25T03:02:31.926Z,0
2017-08-25T03:03:44.479Z,0
2017-08-25T03:04:56.772Z,0
2017-08-25T03:06:09.141Z,0
2017-08-25T03:07:21.111Z,0
2017-08-25T03:08:33.669Z,0
2017-08-25T03:09:46.256Z,0
2017-08-25T03:10:58.494Z,0
2017-08-25T03:12:10.473Z,0
2017-08-25T03:13:22.154Z,0
2017-08-25T03:14:34.706Z,0
2017-08-25T03:15:47.270Z,0
2017-08-25T03:16:59.508Z,0
2017-08-25T03:18:11.738Z,0
2017-08-25T03:19:24.115Z,0
2017-08-25T03:20:36.363Z,0
2017-08-25T03:23:15.823Z,0
2017-08-25T03:24:28.364Z,0
2017-08-25T03:25:40.617Z,0
2017-08-25T03:27:07.846Z,0
2017-08-25T03:28:20.410Z,0
2017-08-25T03:29:32.697Z,0
2017-08-25T03:30:45.244Z,0
2017-08-25T03:31:57.844Z,0
2017-08-25T03:33:10.458Z,0
2017-08-25T03:34:22.680Z,0
2017-08-25T03:35:49.852Z,0
2017-08-25T03:37:01.842Z,0
2017-08-25T03:38:13.764Z,0
2017-08-25T03:39:26.016Z,0
2017-08-25T03:40:38.322Z,0
2017-08-25T03:41:50.552Z,0
2017-08-25T03:43:03.182Z,0
2017-08-25T03:44:15.446Z,0
2017-08-25T03:45:28.012Z,0
2017-08-25T03:46:40.294Z,0
2017-08-25T03:47:52.447Z,0
2017-08-25T03:49:04.702Z,0
2017-08-25T03:50:32.147Z,0
2017-08-25T03:51:59.369Z,0
2017-08-25T03:53:11.959Z,0
2017-08-25T03:54:24.562Z,0
2017-08-25T03:55:36.807Z,0
2017-08-25T03:56:49.329Z,0
2017-08-25T03:58:01.248Z,0
2017-08-25T03:59:13.502Z,0
2017-08-25T04:00:25.858Z,0
2017-08-25T04:01:38.182Z,0
2017-08-25T04:02:50.906Z,0
2017-08-25T04:04:03.482Z,0
2017-08-25T04:05:15.726Z,0
2017-08-25T04:06:28.011Z,0
2017-08-25T04:07:40.757Z,0
2017-08-25T04:08:53.006Z,0
2017-08-25T04:10:04.648Z,0
2017-08-25T04:11:16.650Z,5
2017-08-25T04:12:29.296Z,5
2017-08-25T04:13:41.892Z,5
2017-08-25T04:14:54.537Z,5
2017-08-25T04:16:06.726Z,5
2017-08-25T04:17:19.326Z,5
2017-08-25T04:18:31.974Z,10
2017-08-25T04:19:44.562Z,10
2017-08-25T04:20:57.139Z,10
2017-08-25T04:22:08.783Z,10
2017-08-25T04:23:20.754Z,15
2017-08-25T04:24:33.246Z,15
2017-08-25T04:25:45.800Z,15
2017-08-25T04:26:58.419Z,15
2017-08-25T04:28:10.969Z,15
2017-08-25T04:29:23.610Z,15
2017-08-25T04:30:36.266Z,20
2017-08-25T04:31:48.852Z,20
2017-08-25T04:33:01.126Z,20
2017-08-25T04:34:13.722Z,20
2017-08-25T04:35:26.617Z,20
2017-08-25T04:36:39.189Z,25
2017-08-25T04:37:51.473Z,25
2017-08-25T04:39:04.094Z,25
2017-08-25T04:40:16.687Z,25
2017-08-25T04:41:28.938Z,30
2017-08-25T04:42:41.466Z,30
2017-08-25T04:43:53.751Z,35
2017-08-25T04:45:06.323Z,35
2017-08-25T04:46:18.854Z,40
2017-08-25T04:47:31.494Z,45
2017-08-25T04:48:44.095Z,45
2017-08-25T04:49:56.410Z,50
2017-08-25T04:51:09.000Z,55
2017-08-25T04:52:21.595Z,55
2017-08-25T04:53:34.125Z,60
2017-08-25T04:54:46.336Z,60
2017-08-25T04:55:58.614Z,60
2017-08-25T04:57:11.265Z,60
2017-08-25T04:58:23.597Z,60
2017-08-25T04:59:36.245Z,60
2017-08-25T05:00:48.495Z,65
2017-08-25T05:02:01.352Z,70
2017-08-25T05:03:13.624Z,70
2017-08-25T05:04:26.229Z,65
2017-08-25T05:05:38.499Z,65
2017-08-25T05:06:51.051Z,75
2017-08-25T05:08:03.366Z,75
2017-08-25T05:09:15.934Z,80
2017-08-25T05:10:28.706Z,80
2017-08-25T05:11:55.856Z,90
2017-08-25T05:13:07.783Z,95
2017-08-25T05:14:20.444Z,90
2017-08-25T05:15:33.014Z,90
2017-08-25T05:16:45.633Z,100
2017-08-25T05:17:57.293Z,105
2017-08-25T05:19:09.600Z,115
2017-08-25T05:20:22.170Z,115
2017-08-25T05:21:34.769Z,120
2017-08-25T05:22:47.052Z,125
2017-08-25T05:23:59.606Z,140
2017-08-25T05:25:11.851Z,140
2017-08-25T05:26:24.153Z,145
2017-08-25T05:27:36.717Z,145
2017-08-25T05:28:49.046Z,150
2017-08-25T05:30:01.711Z,160
2017-08-25T05:31:13.605Z,165
2017-08-25T05:32:26.207Z,175
2017-08-25T05:33:38.782Z,180
2017-08-25T05:34:51.356Z,170
2017-08-25T05:36:03.598Z,170
2017-08-25T05:37:15.857Z,165
2017-08-25T05:38:27.842Z,155
2017-08-25T05:39:40.135Z,160
2017-08-25T05:40:52.719Z,175
2017-08-25T05:42:04.958Z,180
2017-08-25T05:43:17.229Z,180
2017-08-25T05:44:29.157Z,200
2017-08-25T05:45:41.695Z,210
2017-08-25T05:46:53.940Z,220
2017-08-25T05:48:06.473Z,225
2017-08-25T05:49:18.689Z,240
2017-08-25T05:50:30.639Z,240
2017-08-25T05:51:43.230Z,250
2017-08-25T05:52:55.531Z,255
2017-08-25T05:54:07.799Z,245
2017-08-25T05:55:19.816Z,240
2017-08-25T05:56:32.105Z,235
2017-08-25T05:57:44.766Z,235
2017-08-25T05:58:56.710Z,235
2017-08-25T06:00:09.278Z,245
2017-08-25T06:01:21.857Z,255
2017-08-25T06:02:34.070Z,250
2017-08-25T06:03:46.590Z,250
2017-08-25T06:06:55.501Z,255
2017-08-25T06:08:07.775Z,255
2017-08-25T06:09:20.385Z,255
2017-08-25T06:10:32.964Z,260
2017-08-25T06:11:45.511Z,270
2017-08-25T06:12:57.778Z,275
2017-08-25T06:14:10.062Z,280
2017-08-25T06:15:22.376Z,310
2017-08-25T06:16:34.992Z,325
2017-08-25T06:17:47.538Z,335
2017-08-25T06:18:59.839Z,330
2017-08-25T06:20:11.786Z,315
2017-08-25T06:21:24.108Z,315
2017-08-25T06:22:36.411Z,310
2017-08-25T06:23:48.732Z,325
2017-08-25T06:25:00.972Z,310
2017-08-25T06:26:13.317Z,360
2017-08-25T06:27:25.884Z,400
2017-08-25T06:28:38.148Z,455
2017-08-25T06:29:50.725Z,495
2017-08-25T06:31:03.360Z,475
2017-08-25T06:32:15.622Z,455
2017-08-25T06:33:28.231Z,455
2017-08-25T06:34:40.504Z,470
2017-08-25T06:35:53.097Z,455
2017-08-25T06:37:04.810Z,420
2017-08-25T06:38:16.813Z,350
2017-08-25T06:39:29.461Z,335
2017-08-25T06:40:42.041Z,310
2017-08-25T06:41:54.702Z,305
2017-08-25T06:43:06.958Z,325
2017-08-25T06:44:19.242Z,355
2017-08-25T06:45:31.179Z,375
2017-08-25T06:46:43.464Z,370
2017-08-25T06:47:55.452Z,360
2017-08-25T06:49:07.741Z,360
2017-08-25T06:50:20.373Z,410
2017-08-25T06:51:32.927Z,395
2017-08-25T06:52:45.103Z,395
2017-08-25T06:53:57.382Z,425
2017-08-25T06:55:09.981Z,485
2017-08-25T06:56:21.604Z,520
2017-08-25T06:57:33.849Z,480
2017-08-25T06:58:46.163Z,430
2017-08-25T06:59:58.834Z,445
2017-08-25T07:01:11.732Z,470
2017-08-25T07:02:23.650Z,505
2017-08-25T07:03:35.947Z,535
2017-08-25T07:04:48.195Z,580
2017-08-25T07:06:00.762Z,635
2017-08-25T07:07:13.039Z,575
2017-08-25T07:08:25.337Z,545
2017-08-25T07:09:37.655Z,550
2017-08-25T07:10:49.971Z,480
2017-08-25T07:12:01.897Z,575
2017-08-25T07:13:14.530Z,405
2017-08-25T07:14:27.058Z,420
2017-08-25T07:15:39.018Z,470
2017-08-25T07:16:51.262Z,505
2017-08-25T07:18:03.856Z,520
2017-08-25T07:19:15.825Z,510
2017-08-25T07:20:28.153Z,520
2017-08-25T07:21:40.106Z,505
2017-08-25T07:22:52.955Z,475
2017-08-25T07:24:05.196Z,450
2017-08-25T07:25:17.794Z,430
2017-08-25T07:26:30.376Z,465
2017-08-25T07:27:42.715Z,465
2017-08-25T07:28:54.355Z,475
2017-08-25T07:30:06.994Z,495
2017-08-25T07:31:19.535Z,575
2017-08-25T07:32:32.113Z,825
2017-08-25T07:33:44.442Z,935
2017-08-25T07:34:56.684Z,915
2017-08-25T07:36:09.021Z,1095
2017-08-25T07:37:20.942Z,850
2017-08-25T07:38:33.620Z,975
2017-08-25T07:39:46.219Z,1040
2017-08-25T07:40:58.486Z,825
2017-08-25T07:42:10.489Z,775
2017-08-25T07:43:22.764Z,795
2017-08-25T07:44:35.672Z,1020
2017-08-25T07:45:48.504Z,1155
2017-08-25T07:47:01.121Z,1135
2017-08-25T07:48:13.755Z,920
2017-08-25T07:49:26.393Z,935
2017-08-25T07:50:38.369Z,1035
2017-08-25T07:51:50.683Z,1140
2017-08-25T07:53:02.642Z,1085
2017-08-25T07:54:15.292Z,1355
2017-08-25T07:55:27.909Z,1335
2017-08-25T07:56:40.542Z,1385
2017-08-25T07:57:52.561Z,1380
2017-08-25T07:59:04.878Z,1330
2017-08-25T08:00:17.494Z,1380
2017-08-25T08:01:30.091Z,1130
2017-08-25T08:02:42.375Z,900
2017-08-25T08:03:54.661Z,900
2017-08-25T08:05:07.349Z,875
2017-08-25T08:06:19.943Z,815
2017-08-25T08:07:32.539Z,795
2017-08-25T08:08:44.548Z,740
2017-08-25T08:09:56.884Z,635
2017-08-25T08:11:08.901Z,575
2017-08-25T08:12:21.487Z,635
2017-08-25T08:13:33.801Z,750
2017-08-25T08:14:46.446Z,850
2017-08-25T08:15:59.066Z,920
2017-08-25T08:17:11.289Z,930
2017-08-25T08:18:23.614Z,890
2017-08-25T08:19:36.245Z,850
2017-08-25T08:20:48.510Z,770
2017-08-25T08:22:01.113Z,695
2017-08-25T08:23:13.122Z,695
2017-08-25T08:24:25.691Z,805
2017-08-25T08:25:38.003Z,830
2017-08-25T08:26:50.538Z,815
2017-08-25T08:28:02.516Z,825
2017-08-25T08:29:15.115Z,895
2017-08-25T08:30:27.415Z,805
2017-08-25T08:31:39.732Z,750
2017-08-25T08:32:52.031Z,690
2017-08-25T08:34:04.672Z,665
2017-08-25T08:35:16.943Z,685
2017-08-25T08:36:29.240Z,750
2017-08-25T08:37:41.889Z,790
2017-08-25T08:38:54.403Z,840
2017-08-25T08:40:06.649Z,890
2017-08-25T08:41:19.219Z,925
2017-08-25T08:42:31.839Z,975
2017-08-25T08:43:44.057Z,1015
2017-08-25T08:44:56.334Z,1045
2017-08-25T08:46:08.992Z,1030
2017-08-25T08:47:21.222Z,1075
2017-08-25T08:48:33.478Z,1100
2017-08-25T08:49:46.146Z,845
2017-08-25T08:50:58.738Z,610
2017-08-25T08:52:11.311Z,610
2017-08-25T08:53:23.600Z,585
2017-08-25T08:54:36.196Z,530
2017-08-25T08:55:48.759Z,520
2017-08-25T08:57:00.776Z,580
2017-08-25T08:58:13.038Z,645
2017-08-25T08:59:25.606Z,765
2017-08-25T09:00:37.927Z,750
2017-08-25T09:01:50.550Z,660
2017-08-25T09:03:02.195Z,625
2017-08-25T09:04:14.462Z,670
2017-08-25T09:05:26.412Z,705
2017-08-25T09:06:39.014Z,700
2017-08-25T09:07:51.022Z,660
2017-08-25T09:09:03.621Z,710
2017-08-25T09:10:15.895Z,760
2017-08-25T09:11:28.523Z,780
2017-08-25T09:12:40.781Z,735
2017-08-25T09:13:53.069Z,820
2017-08-25T09:15:05.021Z,760
2017-08-25T09:16:17.640Z,560
2017-08-25T09:17:30.249Z,615
2017-08-25T09:18:42.520Z,670
2017-08-25T09:19:55.190Z,600
2017-08-25T09:21:07.128Z,600
2017-08-25T09:22:19.363Z,655
2017-08-25T09:23:31.649Z,690
2017-08-25T09:24:44.262Z,655
2017-08-25T09:25:56.477Z,540
2017-08-25T09:27:08.457Z,515
2017-08-25T09:28:20.403Z,705
2017-08-25T09:29:33.046Z,795
2017-08-25T09:30:45.671Z,770
2017-08-25T09:31:58.243Z,785
2017-08-25T09:33:10.199Z,630
2017-08-25T09:34:22.479Z,835
2017-08-25T09:35:35.041Z,885
2017-08-25T09:36:47.599Z,900
2017-08-25T09:37:59.589Z,1020
2017-08-25T09:39:11.816Z,915
2017-08-25T09:40:23.784Z,1070
2017-08-25T09:41:36.393Z,1175
2017-08-25T09:42:48.338Z,1125
2017-08-25T09:44:00.944Z,985
2017-08-25T09:45:13.245Z,925
2017-08-25T09:46:25.520Z,1030
2017-08-25T09:47:38.128Z,1140
2017-08-25T09:48:50.767Z,1080
2017-08-25T09:50:03.370Z,1090
2017-08-25T09:51:15.349Z,1070
2017-08-25T09:52:27.640Z,965
2017-08-25T09:53:39.674Z,975
2017-08-25T09:54:51.654Z,980
2017-08-25T09:56:04.268Z,890
2017-08-25T09:57:16.201Z,1000
2017-08-25T09:58:28.190Z,1095
2017-08-25T09:59:40.388Z,970
2017-08-25T10:00:52.699Z,895
2017-08-25T10:02:04.682Z,840
2017-08-25T10:03:16.997Z,905
2017-08-25T10:04:29.636Z,1095
2017-08-25T10:05:42.266Z,1215
2017-08-25T10:06:54.887Z,1120
2017-08-25T10:08:06.816Z,1135
2017-08-25T10:09:19.679Z,655
2017-08-25T10:10:32.324Z,585
2017-08-25T10:11:44.960Z,590
2017-08-25T10:12:57.563Z,795
2017-08-25T10:14:09.564Z,440
2017-08-25T10:15:21.831Z,315
2017-08-25T10:16:34.405Z,320
2017-08-25T10:17:47.045Z,545
2017-08-25T10:18:59.618Z,930
2017-08-25T10:20:11.904Z,1775
2017-08-25T10:21:24.525Z,920
2017-08-25T10:22:37.090Z,2080
2017-08-25T10:23:49.730Z,2890
2017-08-25T10:25:01.669Z,785
2017-08-25T10:26:14.223Z,630
2017-08-25T10:27:26.811Z,615
2017-08-25T10:28:39.057Z,910
2017-08-25T10:29:51.702Z,2600
2017-08-25T10:31:04.256Z,650
2017-08-25T10:32:16.845Z,460
2017-08-25T10:33:29.196Z,830
2017-08-25T10:34:41.465Z,2485
2017-08-25T10:35:53.797Z,3180
2017-08-25T10:37:05.761Z,2985
2017-08-25T10:38:18.296Z,500
2017-08-25T10:39:30.577Z,670
2017-08-25T10:40:42.850Z,735
2017-08-25T10:41:55.110Z,1085
2017-08-25T10:43:07.454Z,3645
2017-08-25T10:44:19.105Z,2970
2017-08-25T10:45:31.420Z,1560
2017-08-25T10:46:44.296Z,3735
2017-08-25T10:47:56.925Z,3720
2017-08-25T10:49:09.207Z,2115
2017-08-25T10:50:21.495Z,960
2017-08-25T10:51:34.074Z,865
2017-08-25T10:52:46.644Z,1215
2017-08-25T10:53:59.216Z,1465
2017-08-25T10:55:11.445Z,2715
2017-08-25T10:56:23.716Z,1080
2017-08-25T10:57:36.255Z,1675
2017-08-25T10:59:17.799Z,3605
2017-08-25T11:00:30.389Z,3360
2017-08-25T11:01:42.404Z,3420
2017-08-25T11:02:54.998Z,3795
2017-08-25T11:04:07.302Z,3895
2017-08-25T11:05:19.926Z,3645
2017-08-25T11:06:32.494Z,3940
2017-08-25T11:07:44.457Z,3950
2017-08-25T11:08:57.005Z,3190
2017-08-25T11:10:09.638Z,3250
2017-08-25T11:11:22.230Z,3360
2017-08-25T11:12:34.551Z,3390
2017-08-25T11:13:46.836Z,3475
2017-08-25T11:14:59.142Z,4235
2017-08-25T11:16:11.444Z,2135
2017-08-25T11:17:24.041Z,970
2017-08-25T11:18:36.309Z,1425
2017-08-25T11:19:48.672Z,3020
2017-08-25T11:21:00.947Z,985
2017-08-25T11:22:13.212Z,535
2017-08-25T11:23:25.764Z,470
2017-08-25T11:24:37.802Z,430
2017-08-25T11:25:50.055Z,420
2017-08-25T11:27:02.302Z,435
2017-08-25T11:28:14.890Z,555
2017-08-25T11:29:27.167Z,3570
2017-08-25T11:30:39.794Z,4195
2017-08-25T11:31:52.080Z,1580
2017-08-25T11:33:04.084Z,1510
2017-08-25T11:34:16.097Z,3665
2017-08-25T11:35:28.691Z,4260
2017-08-25T11:36:41.036Z,4455
2017-08-25T11:37:53.632Z,4655
2017-08-25T11:39:05.263Z,4095
2017-08-25T11:40:17.564Z,4045
2017-08-25T11:41:30.160Z,4165
2017-08-25T11:42:42.790Z,4235
2017-08-25T11:43:55.351Z,4500
2017-08-25T11:45:07.305Z,2850
2017-08-25T11:46:19.268Z,850
2017-08-25T11:47:31.830Z,645
2017-08-25T11:48:44.147Z,565
2017-08-25T11:49:56.741Z,515
2017-08-25T11:51:09.332Z,490
2017-08-25T11:52:21.627Z,480
2017-08-25T11:53:33.283Z,595
2017-08-25T11:54:45.863Z,770
2017-08-25T11:55:58.523Z,4460
2017-08-25T11:57:10.853Z,4530
2017-08-25T11:58:22.824Z,4745
2017-08-25T11:59:35.083Z,4235
2017-08-25T12:00:46.998Z,1705
2017-08-25T12:01:59.529Z,4470
2017-08-25T12:03:12.221Z,1290
2017-08-25T12:04:24.563Z,4395
2017-08-25T12:05:37.231Z,3625
2017-08-25T12:06:49.837Z,3210
2017-08-25T12:08:02.122Z,3445
2017-08-25T12:09:14.443Z,3875
2017-08-25T12:10:26.416Z,3995
2017-08-25T12:11:38.734Z,3935
2017-08-25T12:12:51.342Z,4075
2017-08-25T12:14:03.684Z,1500
2017-08-25T12:15:16.271Z,3200
2017-08-25T12:16:28.909Z,1170
2017-08-25T12:17:41.188Z,1195
2017-08-25T12:18:53.449Z,3765
2017-08-25T12:20:05.971Z,1390
2017-08-25T12:21:17.927Z,1365
2017-08-25T12:22:30.518Z,890
2017-08-25T12:23:42.766Z,2525
2017-08-25T12:24:55.047Z,4505
2017-08-25T12:26:07.706Z,3855
2017-08-25T12:27:20.026Z,945
2017-08-25T12:28:32.373Z,4425
2017-08-25T12:29:44.654Z,4070
2017-08-25T12:30:56.656Z,3930
2017-08-25T12:32:08.327Z,1580
2017-08-25T12:33:20.605Z,3740
2017-08-25T12:34:33.201Z,3700
2017-08-25T12:35:45.828Z,3495
2017-08-25T12:36:58.159Z,3255
2017-08-25T12:38:10.788Z,930
2017-08-25T12:39:23.492Z,3605
2017-08-25T12:40:35.757Z,2805
2017-08-25T12:41:48.093Z,2055
2017-08-25T12:43:00.396Z,885
2017-08-25T12:44:12.742Z,775
2017-08-25T12:45:25.415Z,790
2017-08-25T12:46:37.689Z,615
2017-08-25T12:47:50.258Z,600
2017-08-25T12:49:01.935Z,595
2017-08-25T12:50:14.531Z,630
2017-08-25T12:51:27.168Z,725
2017-08-25T12:52:39.812Z,770
2017-08-25T12:53:52.481Z,720
2017-08-25T12:55:05.063Z,665
2017-08-25T12:56:17.023Z,690
2017-08-25T12:57:28.731Z,680
2017-08-25T12:58:41.026Z,630
2017-08-25T12:59:53.326Z,650
2017-08-25T13:01:05.293Z,625
2017-08-25T13:02:17.576Z,710
2017-08-25T13:03:30.207Z,620
2017-08-25T13:04:42.193Z,550
2017-08-25T13:05:54.806Z,610
2017-08-25T13:07:06.758Z,595
2017-08-25T13:08:19.077Z,530
2017-08-25T13:09:31.682Z,510
2017-08-25T13:10:43.623Z,500
2017-08-25T13:11:55.926Z,505
2017-08-25T13:13:08.310Z,495
2017-08-25T13:14:20.585Z,495
2017-08-25T13:15:32.559Z,495
2017-08-25T13:16:45.128Z,495
2017-08-25T13:17:57.680Z,495
2017-08-25T13:19:10.240Z,490
2017-08-25T13:20:22.885Z,510
2017-08-25T13:21:35.524Z,550
2017-08-25T13:22:47.802Z,705
2017-08-25T13:24:00.075Z,650
2017-08-25T13:25:12.368Z,705
2017-08-25T13:26:24.630Z,660
2017-08-25T13:27:37.172Z,520
2017-08-25T13:28:49.497Z,495
2017-08-25T13:30:02.117Z,600
2017-08-25T13:31:14.723Z,610
2017-08-25T13:32:27.334Z,690
2017-08-25T13:33:39.916Z,710
2017-08-25T13:34:52.510Z,555
2017-08-25T13:36:05.164Z,465
2017-08-25T13:37:17.751Z,440
2017-08-25T13:38:30.271Z,430
2017-08-25T13:39:42.598Z,415
2017-08-25T13:40:55.460Z,410
2017-08-25T13:42:07.742Z,430
2017-08-25T13:43:20.320Z,480
2017-08-25T13:44:32.558Z,535
2017-08-25T13:45:44.775Z,580
2017-08-25T13:46:57.341Z,610
2017-08-25T13:48:09.591Z,580
2017-08-25T13:49:21.653Z,525
2017-08-25T13:50:33.902Z,475
2017-08-25T13:51:46.139Z,440
2017-08-25T13:52:58.403Z,465
2017-08-25T13:54:10.996Z,535
2017-08-25T13:55:23.565Z,525
2017-08-25T13:56:35.583Z,445
2017-08-25T13:57:48.175Z,440
2017-08-25T13:59:00.196Z,500
2017-08-25T14:00:12.442Z,550
2017-08-25T14:01:25.048Z,605
2017-08-25T14:02:37.310Z,585
2017-08-25T14:03:49.885Z,535
2017-08-25T14:05:02.200Z,530
2017-08-25T14:06:14.781Z,500
2017-08-25T14:07:27.041Z,425
2017-08-25T14:08:39.627Z,360
2017-08-25T14:09:51.556Z,390
2017-08-25T14:11:03.181Z,540
2017-08-25T14:12:15.176Z,565
2017-08-25T14:13:27.775Z,530
2017-08-25T14:14:40.338Z,455
2017-08-25T14:15:52.623Z,410
2017-08-25T14:17:04.608Z,380
2017-08-25T14:18:16.536Z,375
2017-08-25T14:19:28.828Z,405
2017-08-25T14:20:41.454Z,390
2017-08-25T14:21:53.413Z,365
2017-08-25T14:23:05.336Z,355
2017-08-25T14:24:17.613Z,355
2017-08-25T14:25:30.233Z,370
2017-08-25T14:26:42.777Z,365
2017-08-25T14:27:54.808Z,355
2017-08-25T14:29:06.762Z,390
2017-08-25T14:30:18.414Z,380
2017-08-25T14:31:31.039Z,400
2017-08-25T14:32:43.648Z,400
2017-08-25T14:33:55.961Z,345
2017-08-25T14:35:07.968Z,325
2017-08-25T14:36:20.588Z,320
2017-08-25T14:37:32.931Z,335
2017-08-25T14:38:45.481Z,335
2017-08-25T14:39:58.098Z,335
2017-08-25T14:41:10.621Z,320
2017-08-25T14:42:23.220Z,325
2017-08-25T14:43:35.826Z,315
2017-08-25T14:44:48.429Z,310
2017-08-25T14:46:00.718Z,300
2017-08-25T14:47:12.696Z,295
2017-08-25T14:48:24.728Z,290
2017-08-25T14:49:36.700Z,290
2017-08-25T14:50:48.691Z,285
2017-08-25T14:52:00.708Z,280
2017-08-25T14:53:13.256Z,275
2017-08-25T14:54:25.282Z,280
2017-08-25T14:55:37.858Z,280
2017-08-25T14:56:50.443Z,280
2017-08-25T14:58:02.684Z,275
2017-08-25T14:59:15.253Z,280
2017-08-25T15:00:27.577Z,265
2017-08-25T15:01:40.157Z,260
2017-08-25T15:02:52.790Z,255
2017-08-25T15:04:05.369Z,250
2017-08-25T15:05:17.932Z,250
2017-08-25T15:06:30.176Z,245
2017-08-25T15:07:42.761Z,240
2017-08-25T15:08:55.335Z,230
2017-08-25T15:10:07.656Z,230
2017-08-25T15:11:20.186Z,225
2017-08-25T15:12:32.782Z,230
2017-08-25T15:13:45.068Z,235
2017-08-25T15:14:57.625Z,230
2017-08-25T15:16:10.234Z,230
2017-08-25T15:17:22.538Z,235
2017-08-25T15:18:35.385Z,235
2017-08-25T15:19:47.655Z,240
2017-08-25T15:21:00.267Z,235
2017-08-25T15:22:12.862Z,230
2017-08-25T15:23:25.116Z,235
2017-08-25T15:24:37.934Z,250
2017-08-25T15:25:50.545Z,230
2017-08-25T15:27:02.539Z,220
2017-08-25T15:28:15.141Z,210
2017-08-25T15:29:27.412Z,215
2017-08-25T15:30:40.044Z,220
2017-08-25T15:31:52.636Z,235
2017-08-25T15:33:05.211Z,235
2017-08-25T15:34:17.151Z,235
2017-08-25T15:35:29.448Z,230
2017-08-25T15:36:42.029Z,225
2017-08-25T15:37:54.406Z,220
2017-08-25T15:39:06.338Z,215
2017-08-25T15:40:18.890Z,220
2017-08-25T15:41:31.159Z,220
2017-08-25T15:42:43.746Z,215
2017-08-25T15:43:56.000Z,215
2017-08-25T15:45:07.945Z,215
2017-08-25T15:46:20.570Z,210
2017-08-25T15:47:32.909Z,210
2017-08-25T15:48:45.528Z,210
2017-08-25T15:49:58.048Z,205
2017-08-25T15:51:10.069Z,200
2017-08-25T15:52:22.637Z,200
2017-08-25T15:53:35.163Z,195
2017-08-25T15:54:47.502Z,195
2017-08-25T15:55:59.725Z,200
2017-08-25T15:57:12.346Z,200
2017-08-25T15:58:24.267Z,200
2017-08-25T15:59:36.494Z,200
2017-08-25T16:00:49.143Z,200
2017-08-25T16:02:01.479Z,200
2017-08-25T16:03:13.477Z,200
2017-08-25T16:04:25.118Z,195
2017-08-25T16:05:37.071Z,195
2017-08-25T16:06:49.670Z,190
2017-08-25T16:08:01.980Z,195
2017-08-25T16:09:14.594Z,190
2017-08-25T16:10:26.610Z,190
2017-08-25T16:11:38.944Z,190
2017-08-25T16:12:51.491Z,200
2017-08-25T16:14:03.439Z,235
2017-08-25T16:15:16.007Z,220
2017-08-25T16:16:28.253Z,255
2017-08-25T16:17:40.232Z,210
2017-08-25T16:18:52.533Z,185
2017-08-25T16:20:04.211Z,180
2017-08-25T16:21:16.507Z,175
2017-08-25T16:22:29.086Z,170
2017-08-25T16:23:41.050Z,170
2017-08-25T16:24:53.310Z,165
2017-08-25T16:26:05.972Z,165
2017-08-25T16:27:18.222Z,160
2017-08-25T16:28:30.809Z,165
2017-08-25T16:29:43.104Z,165
2017-08-25T16:30:55.401Z,165
2017-08-25T16:32:07.361Z,165
2017-08-25T16:33:19.626Z,170
2017-08-25T16:34:31.960Z,170
2017-08-25T16:35:44.265Z,170
2017-08-25T16:36:56.225Z,160
2017-08-25T16:38:08.223Z,155
2017-08-25T16:39:20.776Z,150
2017-08-25T16:40:33.319Z,150
2017-08-25T16:41:45.591Z,145
2017-08-25T16:42:57.573Z,145
2017-08-25T16:44:09.576Z,145
2017-08-25T16:45:22.157Z,140
2017-08-25T16:46:34.767Z,140
2017-08-25T16:47:47.048Z,135
2017-08-25T16:48:58.689Z,135
2017-08-25T16:50:10.634Z,135
2017-08-25T16:51:23.259Z,130
2017-08-25T16:52:35.620Z,130
2017-08-25T16:53:47.890Z,125
2017-08-25T16:55:00.464Z,125
2017-08-25T16:56:13.085Z,120
2017-08-25T16:57:25.658Z,120
2017-08-25T16:58:38.225Z,115